sensor_id;sensor_type;location;lat;lon;timestamp;pressure;altitude;pressure_sealevel;temperature;humidity
20019;BME280;10170;42.502;26.526;2023-05-03T00:00:14;100339.28;;;7.84;100.00
20019;BME280;10170;42.502;26.526;2023-05-03T00:02:42;100323.25;;;7.70;100.00
20019;BME280;10170;42.502;26.526;2023-05-03T00:05:10;100341.25;;;7.90;100.00
20019;BME280;10170;42.502;26.526;2023-05-03T00:07:41;100337.41;;;7.93;100.00
20019;BME280;10170;42.502;26.526;2023-05-03T00:10:10;100327.00;;;7.91;100.00
20019;BME280;10170;42.502;26.526;2023-05-03T00:12:39;100316.69;;;8.04;100.00
20019;BME280;10170;42.502;26.526;2023-05-03T00:15:07;100327.03;;;8.14;100.00
20019;BME280;10170;42.502;26.526;2023-05-03T00:17:35;100309.31;;;8.22;100.00
20019;BME280;10170;42.502;26.526;2023-05-03T00:20:02;100307.38;;;8.39;100.00
20019;BME280;10170;42.502;26.526;2023-05-03T00:22:30;100314.13;;;8.49;100.00
20019;BME280;10170;42.502;26.526;2023-05-03T00:24:58;100300.34;;;8.54;100.00
20019;BME280;10170;42.502;26.526;2023-05-03T00:27:25;100304.81;;;8.76;100.00
20019;BME280;10170;42.502;26.526;2023-05-03T00:29:52;100308.13;;;8.93;100.00
20019;BME280;10170;42.502;26.526;2023-05-03T00:32:20;100289.75;;;8.91;100.00
20019;BME280;10170;42.502;26.526;2023-05-03T00:34:55;100284.13;;;9.09;100.00
20019;BME280;10170;42.502;26.526;2023-05-03T00:37:23;100289.38;;;9.17;100.00
20019;BME280;10170;42.502;26.526;2023-05-03T00:39:51;100275.25;;;9.16;100.00
20019;BME280;10170;42.502;26.526;2023-05-03T00:42:18;100269.78;;;9.18;100.00
20019;BME280;10170;42.502;26.526;2023-05-03T00:44:44;100255.25;;;9.14;100.00
20019;BME280;10170;42.502;26.526;2023-05-03T00:47:11;100260.91;;;9.25;100.00
20019;BME280;10170;42.502;26.526;2023-05-03T00:49:38;100265.56;;;9.23;100.00
20019;BME280;10170;42.502;26.526;2023-05-03T00:52:05;100268.34;;;9.30;100.00
20019;BME280;10170;42.502;26.526;2023-05-03T00:54:32;100275.00;;;9.26;100.00
20019;BME280;10170;42.502;26.526;2023-05-03T00:57:00;100279.28;;;9.27;100.00
20019;BME280;10170;42.502;26.526;2023-05-03T00:59:31;100291.56;;;9.28;100.00
20019;BME280;10170;42.502;26.526;2023-05-03T01:01:58;100290.03;;;9.33;100.00
20019;BME280;10170;42.502;26.526;2023-05-03T01:04:25;100278.69;;;9.25;100.00
20019;BME280;10170;42.502;26.526;2023-05-03T01:07:02;100283.44;;;9.29;100.00
20019;BME280;10170;42.502;26.526;2023-05-03T01:09:35;100278.13;;;9.44;100.00
20019;BME280;10170;42.502;26.526;2023-05-03T01:15:07;100260.25;;;9.09;100.00
20019;BME280;10170;42.502;26.526;2023-05-03T01:17:42;100254.78;;;9.10;100.00
20019;BME280;10170;42.502;26.526;2023-05-03T01:20:12;100256.50;;;9.18;100.00
20019;BME280;10170;42.502;26.526;2023-05-03T01:22:46;100240.59;;;9.03;100.00
20019;BME280;10170;42.502;26.526;2023-05-03T01:25:15;100241.06;;;9.07;100.00
20019;BME280;10170;42.502;26.526;2023-05-03T01:27:42;100245.97;;;8.95;100.00
20019;BME280;10170;42.502;26.526;2023-05-03T01:30:10;100240.88;;;9.08;100.00
20019;BME280;10170;42.502;26.526;2023-05-03T01:32:49;100244.88;;;9.04;100.00
20019;BME280;10170;42.502;26.526;2023-05-03T01:35:57;100247.34;;;9.06;100.00
20019;BME280;10170;42.502;26.526;2023-05-03T01:38:27;100243.59;;;9.00;100.00
20019;BME280;10170;42.502;26.526;2023-05-03T01:40:59;100220.47;;;8.94;100.00
20019;BME280;10170;42.502;26.526;2023-05-03T01:43:28;100222.38;;;9.00;100.00
20019;BME280;10170;42.502;26.526;2023-05-03T01:45:57;100228.78;;;9.06;100.00
20019;BME280;10170;42.502;26.526;2023-05-03T01:48:24;100228.78;;;9.06;100.00
20019;BME280;10170;42.502;26.526;2023-05-03T01:50:51;100215.16;;;9.09;100.00
20019;BME280;10170;42.502;26.526;2023-05-03T01:53:18;100239.31;;;9.14;100.00
20019;BME280;10170;42.502;26.526;2023-05-03T01:55:45;100253.22;;;9.01;100.00
20019;BME280;10170;42.502;26.526;2023-05-03T01:58:12;100260.72;;;8.98;100.00
20019;BME280;10170;42.502;26.526;2023-05-03T02:00:38;100257.50;;;9.02;100.00
20019;BME280;10170;42.502;26.526;2023-05-03T02:03:05;100254.75;;;8.96;100.00
20019;BME280;10170;42.502;26.526;2023-05-03T02:05:32;100237.66;;;8.98;100.00
20019;BME280;10170;42.502;26.526;2023-05-03T02:07:59;100250.94;;;9.13;100.00
20019;BME280;10170;42.502;26.526;2023-05-03T02:10:25;100247.34;;;9.06;100.00
20019;BME280;10170;42.502;26.526;2023-05-03T02:12:52;100236.53;;;8.93;100.00
20019;BME280;10170;42.502;26.526;2023-05-03T02:15:19;100246.06;;;9.16;100.00
20019;BME280;10170;42.502;26.526;2023-05-03T02:17:46;100251.84;;;9.20;100.00
20019;BME280;10170;42.502;26.526;2023-05-03T02:20:15;100254.13;;;9.08;100.00
20019;BME280;10170;42.502;26.526;2023-05-03T02:22:42;100245.03;;;8.88;100.00
20019;BME280;10170;42.502;26.526;2023-05-03T02:25:08;100247.44;;;8.98;100.00
20019;BME280;10170;42.502;26.526;2023-05-03T02:27:35;100251.38;;;9.02;100.00
20019;BME280;10170;42.502;26.526;2023-05-03T02:30:03;100253.38;;;9.14;100.00
20019;BME280;10170;42.502;26.526;2023-05-03T02:32:30;100245.91;;;9.03;100.00
20019;BME280;10170;42.502;26.526;2023-05-03T02:34:57;100252.78;;;9.12;100.00
20019;BME280;10170;42.502;26.526;2023-05-03T02:37:24;100239.66;;;8.96;100.00
20019;BME280;10170;42.502;26.526;2023-05-03T02:39:51;100249.09;;;9.13;100.00
20019;BME280;10170;42.502;26.526;2023-05-03T02:42:17;100254.88;;;9.17;100.00
20019;BME280;10170;42.502;26.526;2023-05-03T02:44:44;100250.09;;;9.27;100.00
20019;BME280;10170;42.502;26.526;2023-05-03T02:47:11;100251.50;;;9.23;100.00
20019;BME280;10170;42.502;26.526;2023-05-03T02:49:38;100258.53;;;9.30;100.00
20019;BME280;10170;42.502;26.526;2023-05-03T02:52:05;100267.03;;;9.26;100.00
20019;BME280;10170;42.502;26.526;2023-05-03T02:54:31;100274.38;;;9.24;100.00
20019;BME280;10170;42.502;26.526;2023-05-03T02:56:58;100279.22;;;9.20;100.00
20019;BME280;10170;42.502;26.526;2023-05-03T02:59:25;100285.44;;;9.27;100.00
20019;BME280;10170;42.502;26.526;2023-05-03T03:01:52;100278.19;;;9.21;100.00
20019;BME280;10170;42.502;26.526;2023-05-03T03:04:19;100287.31;;;9.04;100.00
20019;BME280;10170;42.502;26.526;2023-05-03T03:06:45;100288.88;;;8.99;100.00
20019;BME280;10170;42.502;26.526;2023-05-03T03:09:12;100288.88;;;8.99;100.00
20019;BME280;10170;42.502;26.526;2023-05-03T03:11:39;100283.00;;;8.89;100.00
20019;BME280;10170;42.502;26.526;2023-05-03T03:14:06;100290.03;;;8.82;100.00
20019;BME280;10170;42.502;26.526;2023-05-03T03:16:33;100271.47;;;8.82;100.00
20019;BME280;10170;42.502;26.526;2023-05-03T03:19:00;100265.09;;;8.68;100.00
20019;BME280;10170;42.502;26.526;2023-05-03T03:21:26;100278.53;;;8.67;100.00
20019;BME280;10170;42.502;26.526;2023-05-03T03:23:55;100265.00;;;8.62;100.00
20019;BME280;10170;42.502;26.526;2023-05-03T03:26:22;100280.31;;;8.74;100.00
20019;BME280;10170;42.502;26.526;2023-05-03T03:28:48;100271.88;;;8.71;100.00
20019;BME280;10170;42.502;26.526;2023-05-03T03:31:15;100277.75;;;8.81;100.00
20019;BME280;10170;42.502;26.526;2023-05-03T03:33:43;100277.09;;;8.79;100.00
20019;BME280;10170;42.502;26.526;2023-05-03T03:36:10;100271.47;;;8.82;100.00
20019;BME280;10170;42.502;26.526;2023-05-03T03:38:37;100270.09;;;8.86;100.00
20019;BME280;10170;42.502;26.526;2023-05-03T03:41:04;100264.44;;;8.89;100.00
20019;BME280;10170;42.502;26.526;2023-05-03T03:43:31;100256.03;;;8.85;100.00
20019;BME280;10170;42.502;26.526;2023-05-03T03:45:58;100265.38;;;8.96;100.00
20019;BME280;10170;42.502;26.526;2023-05-03T03:48:25;100273.50;;;9.09;100.00
20019;BME280;10170;42.502;26.526;2023-05-03T03:50:52;100275.25;;;9.02;100.00
20019;BME280;10170;42.502;26.526;2023-05-03T03:53:18;100275.69;;;9.05;100.00
20019;BME280;10170;42.502;26.526;2023-05-03T03:55:45;100286.63;;;9.10;100.00
20019;BME280;10170;42.502;26.526;2023-05-03T03:58:13;100292.94;;;9.24;100.00
20019;BME280;10170;42.502;26.526;2023-05-03T04:00:40;100282.69;;;9.21;100.00
20019;BME280;10170;42.502;26.526;2023-05-03T04:03:08;100295.69;;;9.30;100.00
20019;BME280;10170;42.502;26.526;2023-05-03T04:05:34;100291.66;;;9.34;100.00
20019;BME280;10170;42.502;26.526;2023-05-03T04:08:01;100294.13;;;9.36;100.00
20019;BME280;10170;42.502;26.526;2023-05-03T04:10:28;100299.53;;;9.28;100.00
20019;BME280;10170;42.502;26.526;2023-05-03T04:12:55;100312.19;;;9.40;100.00
20019;BME280;10170;42.502;26.526;2023-05-03T04:15:22;100323.06;;;9.45;100.00
20019;BME280;10170;42.502;26.526;2023-05-03T04:17:48;100321.88;;;9.48;100.00
20019;BME280;10170;42.502;26.526;2023-05-03T04:20:15;100319.13;;;9.41;100.00
20019;BME280;10170;42.502;26.526;2023-05-03T04:22:43;100337.28;;;9.67;100.00
20019;BME280;10170;42.502;26.526;2023-05-03T04:25:10;100323.81;;;9.69;100.00
20019;BME280;10170;42.502;26.526;2023-05-03T04:27:43;100339.00;;;9.75;100.00
20019;BME280;10170;42.502;26.526;2023-05-03T04:30:10;100328.28;;;9.68;100.00
20019;BME280;10170;42.502;26.526;2023-05-03T04:32:40;100338.56;;;9.56;100.00
20019;BME280;10170;42.502;26.526;2023-05-03T04:35:09;100336.88;;;9.55;100.00
20019;BME280;10170;42.502;26.526;2023-05-03T04:37:36;100338.81;;;9.47;100.00
20019;BME280;10170;42.502;26.526;2023-05-03T04:40:04;100341.03;;;9.58;100.00
20019;BME280;10170;42.502;26.526;2023-05-03T04:42:34;100344.78;;;9.64;100.00
20019;BME280;10170;42.502;26.526;2023-05-03T04:45:04;100340.56;;;9.84;100.00
20019;BME280;10170;42.502;26.526;2023-05-03T04:47:35;100329.13;;;9.83;100.00
20019;BME280;10170;42.502;26.526;2023-05-03T04:50:02;100330.22;;;9.89;100.00
20019;BME280;10170;42.502;26.526;2023-05-03T04:52:29;100342.94;;;9.93;100.00
20019;BME280;10170;42.502;26.526;2023-05-03T04:54:57;100334.78;;;10.09;100.00
20019;BME280;10170;42.502;26.526;2023-05-03T04:57:23;100335.59;;;10.24;100.00
20019;BME280;10170;42.502;26.526;2023-05-03T04:59:51;100324.41;;;10.29;100.00
20019;BME280;10170;42.502;26.526;2023-05-03T05:02:19;100326.31;;;10.35;100.00
20019;BME280;10170;42.502;26.526;2023-05-03T05:04:47;100316.75;;;10.40;100.00
20019;BME280;10170;42.502;26.526;2023-05-03T05:07:14;100320.38;;;10.54;100.00
20019;BME280;10170;42.502;26.526;2023-05-03T05:09:41;100291.50;;;10.51;100.00
20019;BME280;10170;42.502;26.526;2023-05-03T05:12:07;100317.03;;;10.67;100.00
20019;BME280;10170;42.502;26.526;2023-05-03T05:14:34;100331.22;;;10.74;100.00
20019;BME280;10170;42.502;26.526;2023-05-03T05:17:01;100344.44;;;10.88;100.00
20019;BME280;10170;42.502;26.526;2023-05-03T05:19:28;100357.63;;;10.96;100.00
20019;BME280;10170;42.502;26.526;2023-05-03T05:21:55;100370.44;;;10.86;100.00
20019;BME280;10170;42.502;26.526;2023-05-03T05:24:21;100391.19;;;10.97;100.00
20019;BME280;10170;42.502;26.526;2023-05-03T05:26:48;100395.69;;;11.18;100.00
20019;BME280;10170;42.502;26.526;2023-05-03T05:29:15;100385.00;;;11.11;100.00
20019;BME280;10170;42.502;26.526;2023-05-03T05:31:42;100383.75;;;11.07;100.00
20019;BME280;10170;42.502;26.526;2023-05-03T05:34:08;100378.97;;;11.24;100.00
20019;BME280;10170;42.502;26.526;2023-05-03T05:36:36;100382.09;;;11.27;100.00
20019;BME280;10170;42.502;26.526;2023-05-03T05:39:03;100382.31;;;11.32;100.00
20019;BME280;10170;42.502;26.526;2023-05-03T05:41:29;100397.50;;;11.38;100.00
20019;BME280;10170;42.502;26.526;2023-05-03T05:43:57;100417.94;;;11.52;100.00
20019;BME280;10170;42.502;26.526;2023-05-03T05:46:24;100403.25;;;11.63;100.00
20019;BME280;10170;42.502;26.526;2023-05-03T05:48:51;100397.03;;;11.77;100.00
20019;BME280;10170;42.502;26.526;2023-05-03T05:51:18;100410.19;;;11.85;100.00
20019;BME280;10170;42.502;26.526;2023-05-03T05:53:45;100416.69;;;11.76;100.00
20019;BME280;10170;42.502;26.526;2023-05-03T05:56:12;100410.28;;;11.71;100.00
20019;BME280;10170;42.502;26.526;2023-05-03T05:58:39;100401.91;;;11.74;100.00
20019;BME280;10170;42.502;26.526;2023-05-03T06:01:05;100409.94;;;11.80;100.00
20019;BME280;10170;42.502;26.526;2023-05-03T06:03:33;100417.19;;;11.86;100.00
20019;BME280;10170;42.502;26.526;2023-05-03T06:05:59;100416.31;;;11.79;100.00
20019;BME280;10170;42.502;26.526;2023-05-03T06:08:27;100427.97;;;12.12;100.00
20019;BME280;10170;42.502;26.526;2023-05-03T06:10:53;100432.47;;;12.05;100.00
20019;BME280;10170;42.502;26.526;2023-05-03T06:13:21;100432.25;;;12.41;100.00
20019;BME280;10170;42.502;26.526;2023-05-03T06:15:48;100445.84;;;12.59;100.00
20019;BME280;10170;42.502;26.526;2023-05-03T06:18:15;100431.38;;;12.34;100.00
20019;BME280;10170;42.502;26.526;2023-05-03T06:20:41;100457.19;;;12.27;100.00
20019;BME280;10170;42.502;26.526;2023-05-03T06:23:08;100450.47;;;12.37;100.00
20019;BME280;10170;42.502;26.526;2023-05-03T06:25:35;100458.69;;;12.42;100.00
20019;BME280;10170;42.502;26.526;2023-05-03T06:28:02;100448.88;;;12.49;100.00
20019;BME280;10170;42.502;26.526;2023-05-03T06:30:30;100456.50;;;12.52;100.00
20019;BME280;10170;42.502;26.526;2023-05-03T06:32:57;100456.81;;;12.70;100.00
20019;BME280;10170;42.502;26.526;2023-05-03T06:35:23;100457.28;;;13.00;100.00
20019;BME280;10170;42.502;26.526;2023-05-03T06:37:50;100457.50;;;12.92;100.00
20019;BME280;10170;42.502;26.526;2023-05-03T06:40:17;100447.91;;;13.04;100.00
20019;BME280;10170;42.502;26.526;2023-05-03T06:42:44;100459.19;;;13.06;100.00
20019;BME280;10170;42.502;26.526;2023-05-03T06:45:11;100462.56;;;12.81;100.00
20019;BME280;10170;42.502;26.526;2023-05-03T06:47:38;100454.81;;;12.92;100.00
20019;BME280;10170;42.502;26.526;2023-05-03T06:50:08;100465.66;;;12.84;100.00
20019;BME280;10170;42.502;26.526;2023-05-03T06:52:36;100478.00;;;12.92;100.00
20019;BME280;10170;42.502;26.526;2023-05-03T06:55:03;100475.28;;;12.72;100.00
20019;BME280;10170;42.502;26.526;2023-05-03T06:57:30;100467.34;;;12.98;100.00
20019;BME280;10170;42.502;26.526;2023-05-03T06:59:57;100474.56;;;12.98;100.00
20019;BME280;10170;42.502;26.526;2023-05-03T07:02:24;100464.34;;;13.14;100.00
20019;BME280;10170;42.502;26.526;2023-05-03T07:04:52;100463.34;;;13.28;100.00
20019;BME280;10170;42.502;26.526;2023-05-03T07:07:19;100451.44;;;13.44;100.00
20019;BME280;10170;42.502;26.526;2023-05-03T07:09:46;100464.81;;;13.77;100.00
20019;BME280;10170;42.502;26.526;2023-05-03T07:12:13;100470.75;;;14.05;100.00
20019;BME280;10170;42.502;26.526;2023-05-03T07:14:40;100461.41;;;14.53;100.00
20019;BME280;10170;42.502;26.526;2023-05-03T07:17:07;100460.88;;;14.75;100.00
20019;BME280;10170;42.502;26.526;2023-05-03T07:19:34;100476.13;;;14.82;100.00
20019;BME280;10170;42.502;26.526;2023-05-03T07:22:02;100457.97;;;15.52;100.00
20019;BME280;10170;42.502;26.526;2023-05-03T07:24:29;100455.03;;;15.29;100.00
20019;BME280;10170;42.502;26.526;2023-05-03T07:26:56;100468.16;;;15.44;100.00
20019;BME280;10170;42.502;26.526;2023-05-03T07:29:23;100466.84;;;15.77;100.00
20019;BME280;10170;42.502;26.526;2023-05-03T07:31:51;100481.66;;;15.24;100.00
20019;BME280;10170;42.502;26.526;2023-05-03T07:34:19;100484.78;;;15.21;100.00
20019;BME280;10170;42.502;26.526;2023-05-03T07:36:46;100492.50;;;15.05;100.00
20019;BME280;10170;42.502;26.526;2023-05-03T07:39:13;100486.78;;;15.32;100.00
20019;BME280;10170;42.502;26.526;2023-05-03T07:41:39;100472.28;;;15.40;100.00
20019;BME280;10170;42.502;26.526;2023-05-03T07:44:06;100480.38;;;15.64;100.00
20019;BME280;10170;42.502;26.526;2023-05-03T07:46:33;100485.63;;;15.53;100.00
20019;BME280;10170;42.502;26.526;2023-05-03T07:49:05;100485.09;;;15.69;100.00
20019;BME280;10170;42.502;26.526;2023-05-03T07:51:36;100486.47;;;15.78;100.00
20019;BME280;10170;42.502;26.526;2023-05-03T07:54:04;100485.69;;;15.71;100.00
20019;BME280;10170;42.502;26.526;2023-05-03T07:56:31;100479.28;;;16.39;100.00
20019;BME280;10170;42.502;26.526;2023-05-03T07:58:58;100486.81;;;16.31;100.00
20019;BME280;10170;42.502;26.526;2023-05-03T08:01:28;100488.38;;;16.20;100.00
20019;BME280;10170;42.502;26.526;2023-05-03T08:03:55;100493.19;;;16.54;100.00
20019;BME280;10170;42.502;26.526;2023-05-03T08:06:22;100491.66;;;16.76;100.00
20019;BME280;10170;42.502;26.526;2023-05-03T08:08:50;100482.50;;;16.66;100.00
20019;BME280;10170;42.502;26.526;2023-05-03T08:11:17;100483.94;;;16.50;100.00
20019;BME280;10170;42.502;26.526;2023-05-03T08:13:44;100482.84;;;16.33;100.00
20019;BME280;10170;42.502;26.526;2023-05-03T08:16:12;100451.38;;;16.40;100.00
20019;BME280;10170;42.502;26.526;2023-05-03T08:18:39;100460.00;;;16.97;100.00
20019;BME280;10170;42.502;26.526;2023-05-03T08:21:06;100456.06;;;17.40;100.00
20019;BME280;10170;42.502;26.526;2023-05-03T08:23:35;100395.63;;;16.90;100.00
20019;BME280;10170;42.502;26.526;2023-05-03T08:26:02;100462.13;;;17.24;100.00
20019;BME280;10170;42.502;26.526;2023-05-03T08:28:29;100449.69;;;17.23;100.00
20019;BME280;10170;42.502;26.526;2023-05-03T08:30:56;100385.97;;;16.71;100.00
20019;BME280;10170;42.502;26.526;2023-05-03T08:33:23;100458.09;;;17.15;100.00
20019;BME280;10170;42.502;26.526;2023-05-03T08:35:50;100458.22;;;16.91;100.00
20019;BME280;10170;42.502;26.526;2023-05-03T08:38:17;100440.41;;;16.78;100.00
20019;BME280;10170;42.502;26.526;2023-05-03T08:40:47;100426.50;;;16.51;100.00
20019;BME280;10170;42.502;26.526;2023-05-03T08:43:14;100407.31;;;16.30;100.00
20019;BME280;10170;42.502;26.526;2023-05-03T08:45:44;100407.63;;;16.22;100.00
20019;BME280;10170;42.502;26.526;2023-05-03T08:48:13;100403.59;;;16.31;100.00
20019;BME280;10170;42.502;26.526;2023-05-03T08:50:40;100395.44;;;16.01;99.96
20019;BME280;10170;42.502;26.526;2023-05-03T08:53:10;100370.56;;;15.94;95.01
20019;BME280;10170;42.502;26.526;2023-05-03T08:55:37;100374.81;;;16.02;91.82
20019;BME280;10170;42.502;26.526;2023-05-03T08:58:07;100378.47;;;16.25;100.00
20019;BME280;10170;42.502;26.526;2023-05-03T09:00:36;100376.44;;;16.21;100.00
20019;BME280;10170;42.502;26.526;2023-05-03T09:03:03;100375.84;;;16.19;100.00
20019;BME280;10170;42.502;26.526;2023-05-03T09:05:33;100364.38;;;16.30;100.00
20019;BME280;10170;42.502;26.526;2023-05-03T09:08:02;100357.50;;;16.34;100.00
20019;BME280;10170;42.502;26.526;2023-05-03T09:10:30;100390.84;;;16.92;100.00
20019;BME280;10170;42.502;26.526;2023-05-03T09:13:01;100417.63;;;17.51;100.00
20019;BME280;10170;42.502;26.526;2023-05-03T09:15:29;100424.31;;;17.49;100.00
20019;BME280;10170;42.502;26.526;2023-05-03T09:18:12;100424.97;;;17.44;100.00
20019;BME280;10170;42.502;26.526;2023-05-03T09:20:41;100426.00;;;17.96;100.00
20019;BME280;10170;42.502;26.526;2023-05-03T09:23:18;100412.31;;;17.74;100.00
20019;BME280;10170;42.502;26.526;2023-05-03T09:25:48;100417.53;;;17.69;100.00
20019;BME280;10170;42.502;26.526;2023-05-03T09:28:16;100407.38;;;17.95;100.00
20019;BME280;10170;42.502;26.526;2023-05-03T09:30:43;100411.81;;;18.12;100.00
20019;BME280;10170;42.502;26.526;2023-05-03T09:33:11;100398.78;;;18.44;100.00
20019;BME280;10170;42.502;26.526;2023-05-03T09:35:38;100365.72;;;18.60;94.25
20019;BME280;10170;42.502;26.526;2023-05-03T09:38:31;100374.41;;;18.50;85.39
20019;BME280;10170;42.502;26.526;2023-05-03T09:40:59;100381.69;;;18.50;92.05
20019;BME280;10170;42.502;26.526;2023-05-03T09:43:32;100379.81;;;18.78;94.80
20019;BME280;10170;42.502;26.526;2023-05-03T09:46:12;100381.84;;;18.88;85.44
20019;BME280;10170;42.502;26.526;2023-05-03T09:48:39;100371.00;;;18.55;82.47
20019;BME280;10170;42.502;26.526;2023-05-03T09:51:07;100363.84;;;19.22;79.24
20019;BME280;10170;42.502;26.526;2023-05-03T09:53:36;100350.47;;;19.27;73.26
20019;BME280;10170;42.502;26.526;2023-05-03T09:56:07;100344.56;;;19.30;73.43
20019;BME280;10170;42.502;26.526;2023-05-03T09:58:38;100349.16;;;19.62;67.51
20019;BME280;10170;42.502;26.526;2023-05-03T10:01:05;100362.16;;;19.49;68.27
20019;BME280;10170;42.502;26.526;2023-05-03T10:06:22;100331.34;;;18.39;64.28
20019;BME280;10170;42.502;26.526;2023-05-03T10:08:56;100323.00;;;17.89;64.78
20019;BME280;10170;42.502;26.526;2023-05-03T10:11:26;100326.47;;;17.61;65.97
20019;BME280;10170;42.502;26.526;2023-05-03T10:13:54;100327.50;;;17.72;68.82
20019;BME280;10170;42.502;26.526;2023-05-03T10:16:42;100333.88;;;18.06;69.88
20019;BME280;10170;42.502;26.526;2023-05-03T10:22:06;100353.56;;;18.34;69.63
20019;BME280;10170;42.502;26.526;2023-05-03T10:24:34;100339.53;;;18.32;72.47
20019;BME280;10170;42.502;26.526;2023-05-03T10:27:03;100345.66;;;18.84;75.08
20019;BME280;10170;42.502;26.526;2023-05-03T10:32:31;100339.66;;;19.10;68.32
20019;BME280;10170;42.502;26.526;2023-05-03T10:35:05;100356.19;;;19.47;66.44
20019;BME280;10170;42.502;26.526;2023-05-03T10:37:33;100368.38;;;19.16;66.57
20019;BME280;10170;42.502;26.526;2023-05-03T10:40:21;100349.47;;;19.00;68.27
20019;BME280;10170;42.502;26.526;2023-05-03T10:42:55;100400.81;;;19.38;65.34
20019;BME280;10170;42.502;26.526;2023-05-03T10:45:27;100397.31;;;18.92;64.58
20019;BME280;10170;42.502;26.526;2023-05-03T10:48:23;100422.88;;;18.50;70.53
20019;BME280;10170;42.502;26.526;2023-05-03T10:50:50;100415.66;;;18.79;72.91
20019;BME280;10170;42.502;26.526;2023-05-03T10:56:03;100391.16;;;18.52;83.37
20019;BME280;10170;42.502;26.526;2023-05-03T10:58:41;100441.09;;;18.09;83.37
20019;BME280;10170;42.502;26.526;2023-05-03T11:01:10;100428.53;;;17.68;90.87
20019;BME280;10170;42.502;26.526;2023-05-03T11:06:30;100394.63;;;17.67;79.62
20019;BME280;10170;42.502;26.526;2023-05-03T11:08:58;100399.56;;;17.58;87.93
20019;BME280;10170;42.502;26.526;2023-05-03T11:11:25;100435.44;;;17.23;96.18
20019;BME280;10170;42.502;26.526;2023-05-03T11:13:52;100437.03;;;17.12;100.00
20019;BME280;10170;42.502;26.526;2023-05-03T11:16:19;100422.69;;;17.18;100.00
20019;BME280;10170;42.502;26.526;2023-05-03T11:18:46;100432.38;;;17.49;100.00
20019;BME280;10170;42.502;26.526;2023-05-03T11:21:14;100437.38;;;17.45;98.81
20019;BME280;10170;42.502;26.526;2023-05-03T11:23:42;100446.19;;;17.64;97.44
20019;BME280;10170;42.502;26.526;2023-05-03T11:26:09;100451.38;;;18.00;91.94
20019;BME280;10170;42.502;26.526;2023-05-03T11:28:41;100446.00;;;17.88;93.48
20019;BME280;10170;42.502;26.526;2023-05-03T11:31:09;100442.09;;;18.31;93.18
20019;BME280;10170;42.502;26.526;2023-05-03T11:33:37;100439.66;;;18.18;96.05
20019;BME280;10170;42.502;26.526;2023-05-03T11:36:05;100425.59;;;18.27;89.11
20019;BME280;10170;42.502;26.526;2023-05-03T11:38:33;100416.59;;;18.22;94.19
20019;BME280;10170;42.502;26.526;2023-05-03T11:41:10;100421.75;;;18.12;95.09
20019;BME280;10170;42.502;26.526;2023-05-03T11:43:42;100399.66;;;17.98;97.60
20019;BME280;10170;42.502;26.526;2023-05-03T11:46:09;100397.66;;;17.94;98.38
20019;BME280;10170;42.502;26.526;2023-05-03T11:48:37;100380.81;;;17.75;100.00
20019;BME280;10170;42.502;26.526;2023-05-03T11:51:08;100381.19;;;17.67;86.88
20019;BME280;10170;42.502;26.526;2023-05-03T11:53:38;100364.78;;;17.45;84.31
20019;BME280;10170;42.502;26.526;2023-05-03T11:56:11;100360.44;;;17.33;87.40
20019;BME280;10170;42.502;26.526;2023-05-03T11:58:52;100355.06;;;17.44;90.00
20019;BME280;10170;42.502;26.526;2023-05-03T12:01:26;100362.06;;;17.22;75.57
20019;BME280;10170;42.502;26.526;2023-05-03T12:06:24;100350.44;;;16.99;73.14
20019;BME280;10170;42.502;26.526;2023-05-03T12:08:53;100361.84;;;16.82;69.38
20019;BME280;10170;42.502;26.526;2023-05-03T12:11:20;100397.03;;;16.93;71.80
20019;BME280;10170;42.502;26.526;2023-05-03T12:13:59;100375.75;;;16.91;73.93
20019;BME280;10170;42.502;26.526;2023-05-03T12:16:27;100376.53;;;16.80;67.27
20019;BME280;10170;42.502;26.526;2023-05-03T12:18:55;100383.34;;;16.82;64.75
20019;BME280;10170;42.502;26.526;2023-05-03T12:21:44;100358.72;;;16.67;65.07
20019;BME280;10170;42.502;26.526;2023-05-03T12:24:29;100373.13;;;16.73;62.86
20019;BME280;10170;42.502;26.526;2023-05-03T12:26:59;100364.25;;;16.72;63.94
20019;BME280;10170;42.502;26.526;2023-05-03T12:29:28;100368.31;;;16.63;64.06
20019;BME280;10170;42.502;26.526;2023-05-03T12:32:00;100357.75;;;16.50;62.79
20019;BME280;10170;42.502;26.526;2023-05-03T12:34:29;100359.13;;;16.53;61.61
20019;BME280;10170;42.502;26.526;2023-05-03T12:37:01;100352.22;;;16.27;61.03
20019;BME280;10170;42.502;26.526;2023-05-03T12:39:30;100364.22;;;16.43;62.28
20019;BME280;10170;42.502;26.526;2023-05-03T12:41:58;100356.16;;;16.43;64.10
20019;BME280;10170;42.502;26.526;2023-05-03T12:44:29;100352.97;;;16.34;64.51
20019;BME280;10170;42.502;26.526;2023-05-03T12:47:00;100324.28;;;16.17;64.02
20019;BME280;10170;42.502;26.526;2023-05-03T12:49:28;100321.00;;;16.33;64.90
20019;BME280;10170;42.502;26.526;2023-05-03T12:51:55;100323.22;;;16.18;65.97
20019;BME280;10170;42.502;26.526;2023-05-03T12:54:28;100313.94;;;16.20;66.18
20019;BME280;10170;42.502;26.526;2023-05-03T12:56:59;100309.75;;;16.06;64.19
20019;BME280;10170;42.502;26.526;2023-05-03T12:59:37;100312.06;;;16.03;63.75
20019;BME280;10170;42.502;26.526;2023-05-03T13:02:10;100303.13;;;15.91;64.54